createdAt,value
2023-08-18T00:00:13.135Z,81.15
2023-08-18T00:02:43.128Z,81.15
2023-08-18T00:05:10.324Z,81.14
2023-08-18T00:07:37.134Z,80.95
2023-08-18T00:10:04.767Z,81.22
2023-08-18T00:12:31.773Z,81.24
2023-08-18T00:14:58.654Z,81.35
2023-08-18T00:17:25.715Z,81.33
2023-08-18T00:19:54.117Z,81.25
2023-08-18T00:22:20.844Z,81.31
2023-08-18T00:24:47.591Z,81.34
2023-08-18T00:27:14.827Z,81.36
2023-08-18T00:29:41.849Z,81.27
2023-08-18T00:32:08.800Z,81.36
2023-08-18T00:34:35.853Z,81.21
2023-08-18T00:37:04.125Z,81.36
2023-08-18T00:39:31.006Z,81.29
2023-08-18T00:41:58.560Z,81.52
2023-08-18T00:44:25.391Z,81.49
2023-08-18T00:46:52.325Z,81.41
2023-08-18T00:49:20.137Z,81.42
2023-08-18T00:51:47.685Z,81.52
2023-08-18T00:54:17.013Z,81.52
2023-08-18T00:56:44.218Z,81.55
2023-08-18T00:59:11.478Z,81.45
2023-08-18T01:01:38.481Z,81.63
2023-08-18T01:04:06.312Z,81.67
2023-08-18T01:06:33.504Z,81.71
2023-08-18T01:09:00.307Z,81.77
2023-08-18T01:11:36.213Z,81.65
2023-08-18T01:14:15.338Z,81.67
2023-08-18T01:16:48.564Z,81.56
2023-08-18T01:19:17.584Z,81.60
2023-08-18T01:21:45.424Z,81.63
2023-08-18T01:24:13.608Z,81.57
2023-08-18T01:26:43.603Z,81.67
2023-08-18T01:29:10.505Z,81.57
2023-08-18T01:31:38.743Z,81.94
2023-08-18T01:34:08.960Z,81.88
2023-08-18T01:36:40.001Z,81.59
2023-08-18T01:39:08.084Z,81.84
2023-08-18T01:41:37.011Z,81.87
2023-08-18T01:44:06.815Z,82.01
2023-08-18T01:46:33.591Z,81.93
2023-08-18T01:49:00.776Z,81.86
2023-08-18T01:51:27.534Z,81.83
2023-08-18T01:53:54.325Z,81.92
2023-08-18T01:56:21.088Z,81.85
2023-08-18T01:58:49.604Z,82.00
2023-08-18T02:01:16.304Z,82.00
2023-08-18T02:03:43.756Z,81.90
2023-08-18T02:06:10.740Z,81.94
2023-08-18T02:08:39.167Z,82.00
2023-08-18T02:11:06.857Z,81.92
2023-08-18T02:13:34.003Z,82.04
2023-08-18T02:16:02.241Z,81.93
2023-08-18T02:18:29.369Z,82.02
2023-08-18T02:20:56.809Z,82.04
2023-08-18T02:23:24.234Z,81.99
2023-08-18T02:25:51.180Z,81.92
2023-08-18T02:28:20.970Z,82.10
2023-08-18T02:30:47.706Z,81.87
2023-08-18T02:33:15.944Z,81.88
2023-08-18T02:35:45.290Z,81.97
2023-08-18T02:38:16.059Z,82.16
2023-08-18T02:40:44.408Z,82.23
2023-08-18T02:43:11.239Z,82.15
2023-08-18T02:45:38.039Z,82.10
2023-08-18T02:48:05.755Z,81.89
2023-08-18T02:50:35.530Z,82.17
2023-08-18T02:53:04.651Z,82.09
2023-08-18T02:55:31.496Z,82.14
2023-08-18T02:57:58.252Z,82.23
2023-08-18T03:00:25.582Z,82.28
2023-08-18T03:02:52.401Z,82.29
2023-08-18T03:05:19.134Z,82.17
2023-08-18T03:07:47.560Z,82.36
2023-08-18T03:10:14.645Z,82.38
2023-08-18T03:12:41.351Z,82.23
2023-08-18T03:15:09.127Z,82.49
2023-08-18T03:17:35.914Z,82.25
2023-08-18T03:20:05.829Z,82.35
2023-08-18T03:22:33.957Z,82.40
2023-08-18T03:25:02.555Z,82.43
2023-08-18T03:27:29.621Z,82.37
2023-08-18T03:29:56.575Z,82.37
2023-08-18T03:32:25.096Z,82.41
2023-08-18T03:34:54.703Z,82.44
2023-08-18T03:37:21.708Z,82.72
2023-08-18T03:39:48.448Z,82.71
2023-08-18T03:42:16.952Z,82.70
2023-08-18T03:44:43.755Z,82.73
2023-08-18T03:47:10.516Z,82.62
2023-08-18T03:49:37.301Z,82.63
2023-08-18T03:52:04.328Z,82.55
2023-08-18T03:54:31.542Z,82.49
2023-08-18T03:56:58.368Z,82.53
2023-08-18T03:59:26.644Z,82.72
2023-08-18T04:01:53.409Z,82.72
2023-08-18T04:04:20.166Z,82.73
2023-08-18T04:06:46.962Z,82.66
2023-08-18T04:09:17.281Z,82.91
2023-08-18T04:11:44.982Z,82.85
2023-08-18T04:14:11.931Z,82.73
2023-08-18T04:16:40.125Z,82.88
2023-08-18T04:19:06.912Z,82.85
2023-08-18T04:21:33.970Z,82.82
2023-08-18T04:24:01.286Z,82.83
2023-08-18T04:26:28.649Z,83.04
2023-08-18T04:28:55.708Z,83.01
2023-08-18T04:31:22.953Z,83.12
2023-08-18T04:33:51.121Z,83.21
2023-08-18T04:36:17.899Z,83.14
2023-08-18T04:38:44.674Z,82.85
2023-08-18T04:41:11.452Z,82.99
2023-08-18T04:43:38.186Z,83.19
2023-08-18T04:46:04.942Z,83.00
2023-08-18T04:48:31.865Z,83.22
2023-08-18T04:51:00.014Z,83.18
2023-08-18T04:53:26.825Z,83.31
2023-08-18T04:55:53.612Z,83.61
2023-08-18T04:58:20.388Z,83.46
2023-08-18T05:00:47.529Z,83.42
2023-08-18T05:03:14.789Z,83.50
2023-08-18T05:06:09.357Z,83.58
2023-08-18T05:08:36.818Z,83.45
2023-08-18T05:11:05.424Z,83.39
2023-08-18T05:13:33.685Z,83.66
2023-08-18T05:16:04.350Z,83.58
2023-08-18T05:18:32.211Z,83.82
2023-08-18T05:21:01.608Z,83.71
2023-08-18T05:23:29.385Z,83.70
2023-08-18T05:25:57.496Z,83.75
2023-08-18T05:28:25.783Z,83.70
2023-08-18T05:30:56.346Z,83.53
2023-08-18T05:33:23.302Z,83.59
2023-08-18T05:35:50.128Z,83.75
2023-08-18T05:38:18.478Z,83.75
2023-08-18T05:40:46.975Z,83.74
2023-08-18T05:43:15.596Z,83.88
2023-08-18T05:45:44.232Z,83.67
2023-08-18T05:48:11.116Z,83.94
2023-08-18T05:50:38.339Z,83.73
2023-08-18T05:53:06.134Z,83.83
2023-08-18T05:55:34.502Z,84.06
2023-08-18T05:58:03.285Z,83.95
2023-08-18T06:00:31.396Z,84.16
2023-08-18T06:02:59.091Z,83.93
2023-08-18T06:05:29.915Z,83.82
2023-08-18T06:07:56.880Z,83.83
2023-08-18T06:10:24.675Z,84.19
2023-08-18T06:12:53.309Z,83.90
2023-08-18T06:15:21.771Z,84.07
2023-08-18T06:17:51.614Z,84.04
2023-08-18T06:20:18.498Z,83.96
2023-08-18T06:22:45.360Z,83.95
2023-08-18T06:25:12.691Z,84.05
2023-08-18T06:27:39.574Z,84.16
2023-08-18T06:30:09.048Z,84.24
2023-08-18T06:32:35.899Z,84.08
2023-08-18T06:35:02.913Z,84.22
2023-08-18T06:37:29.939Z,84.32
2023-08-18T06:39:57.200Z,84.13
2023-08-18T06:42:24.166Z,84.20
2023-08-18T06:44:50.908Z,84.41
2023-08-18T06:47:19.158Z,84.40
2023-08-18T06:49:45.900Z,84.38
2023-08-18T06:52:12.695Z,84.36
2023-08-18T06:54:41.724Z,84.45
2023-08-18T06:57:08.720Z,84.38
2023-08-18T06:59:38.478Z,84.34
2023-08-18T07:02:05.402Z,84.43
2023-08-18T07:04:33.578Z,84.36
2023-08-18T07:07:00.454Z,84.46
2023-08-18T07:09:27.260Z,84.43
2023-08-18T07:11:54.017Z,84.43
2023-08-18T07:14:20.899Z,84.55
2023-08-18T07:16:47.812Z,84.52
2023-08-18T07:19:14.537Z,84.57
2023-08-18T07:21:42.731Z,84.59
2023-08-18T07:24:09.461Z,84.60
2023-08-18T07:26:36.343Z,84.56
2023-08-18T07:29:05.741Z,84.59
2023-08-18T07:31:32.538Z,84.72
2023-08-18T07:33:59.368Z,84.50
2023-08-18T07:36:26.361Z,84.67
2023-08-18T07:38:54.619Z,84.66
2023-08-18T07:41:21.521Z,84.77
2023-08-18T07:43:48.587Z,84.66
2023-08-18T07:46:15.604Z,84.70
2023-08-18T07:48:44.401Z,84.78
2023-08-18T07:51:11.419Z,84.66
2023-08-18T07:53:38.338Z,84.84
2023-08-18T07:56:06.654Z,84.52
2023-08-18T07:58:34.358Z,84.70
2023-08-18T08:01:02.602Z,84.67
2023-08-18T08:03:29.947Z,84.66
2023-08-18T08:05:57.130Z,84.61
2023-08-18T08:08:23.995Z,84.72
2023-08-18T08:10:50.849Z,84.63
2023-08-18T08:13:19.064Z,84.69
2023-08-18T08:15:47.200Z,84.81
2023-08-18T08:18:14.930Z,84.82
2023-08-18T08:20:41.850Z,84.76
2023-08-18T08:23:10.933Z,84.89
2023-08-18T08:25:39.511Z,84.74
2023-08-18T08:28:06.746Z,84.94
2023-08-18T08:30:36.984Z,84.79
2023-08-18T08:33:07.887Z,84.58
2023-08-18T08:35:35.175Z,84.68
2023-08-18T08:38:02.004Z,84.78
2023-08-18T08:40:28.748Z,84.75
2023-08-18T08:43:04.197Z,84.87
2023-08-18T08:45:33.209Z,84.83
2023-08-18T08:48:07.507Z,84.81
2023-08-18T08:50:40.833Z,84.68
2023-08-18T08:53:10.793Z,84.69
2023-08-18T08:55:39.300Z,84.60
2023-08-18T08:58:06.627Z,84.48
2023-08-18T09:00:33.647Z,84.54
2023-08-18T09:03:03.164Z,84.51
2023-08-18T09:05:34.346Z,84.46
2023-08-18T09:08:01.525Z,84.71
2023-08-18T09:10:28.829Z,84.43
2023-08-18T09:12:55.748Z,84.47
2023-08-18T09:15:24.463Z,84.60
2023-08-18T09:17:54.682Z,84.52
2023-08-18T09:20:24.407Z,84.67
2023-08-18T09:22:55.606Z,84.39
2023-08-18T09:25:27.179Z,84.52
2023-08-18T09:27:54.627Z,84.67
2023-08-18T09:30:23.340Z,84.57
2023-08-18T09:32:51.298Z,84.54
2023-08-18T09:35:22.132Z,84.41
2023-08-18T09:37:57.403Z,84.39
2023-08-18T09:40:24.553Z,84.28
2023-08-18T09:42:51.729Z,84.39
2023-08-18T09:45:20.794Z,84.21
2023-08-18T09:47:50.453Z,84.18
2023-08-18T09:50:20.551Z,84.11
2023-08-18T09:52:53.265Z,84.22
2023-08-18T09:55:26.704Z,84.18
2023-08-18T09:58:00.218Z,83.91
2023-08-18T10:00:28.372Z,83.87
2023-08-18T10:02:59.866Z,83.97
2023-08-18T10:05:27.789Z,83.95
2023-08-18T10:07:56.362Z,83.80
2023-08-18T10:10:26.545Z,83.69
2023-08-18T10:12:53.438Z,83.69
2023-08-18T10:15:22.158Z,83.62
2023-08-18T10:17:48.984Z,83.39
2023-08-18T10:20:15.827Z,83.50
2023-08-18T10:22:44.077Z,83.49
2023-08-18T10:25:23.424Z,83.42
2023-08-18T10:27:51.673Z,83.40
2023-08-18T10:30:27.479Z,83.61
2023-08-18T10:32:57.141Z,83.37
2023-08-18T10:35:25.278Z,83.32
2023-08-18T10:37:52.130Z,83.15
2023-08-18T10:40:26.128Z,83.13
2023-08-18T10:42:58.798Z,83.08
2023-08-18T10:45:28.074Z,82.74
2023-08-18T10:47:58.882Z,82.67
2023-08-18T10:50:28.442Z,82.67
2023-08-18T10:52:56.791Z,82.65
2023-08-18T10:55:23.812Z,82.58
2023-08-18T10:57:50.880Z,82.73
2023-08-18T11:00:20.285Z,82.64
2023-08-18T11:02:50.583Z,82.52
2023-08-18T11:05:18.702Z,82.56
2023-08-18T11:07:45.823Z,82.39
2023-08-18T11:10:18.219Z,82.30
2023-08-18T11:12:45.849Z,82.17
2023-08-18T11:15:14.244Z,81.96
2023-08-18T11:17:43.577Z,81.89
2023-08-18T11:20:14.054Z,81.72
2023-08-18T11:22:41.882Z,81.66
2023-08-18T11:25:13.008Z,81.77
2023-08-18T11:27:42.726Z,81.44
2023-08-18T11:30:11.559Z,81.49
2023-08-18T11:32:43.641Z,81.41
2023-08-18T11:35:11.315Z,81.21
2023-08-18T11:37:40.562Z,81.25
2023-08-18T11:40:10.375Z,81.11
2023-08-18T11:42:40.371Z,80.95
2023-08-18T11:45:09.031Z,80.76
2023-08-18T11:47:37.663Z,80.69
2023-08-18T11:50:08.553Z,80.34
2023-08-18T11:52:44.411Z,80.52
2023-08-18T11:55:12.308Z,80.39
2023-08-18T11:57:42.248Z,80.47
2023-08-18T12:00:14.447Z,80.42
2023-08-18T12:02:42.883Z,80.39
2023-08-18T12:05:21.412Z,80.42
2023-08-18T12:07:48.183Z,80.17
2023-08-18T12:10:15.142Z,80.19
2023-08-18T12:12:41.889Z,80.14
2023-08-18T12:15:10.899Z,80.24
2023-08-18T12:17:37.640Z,80.15
2023-08-18T12:20:07.855Z,80.14
2023-08-18T12:22:37.141Z,79.91
2023-08-18T12:25:10.786Z,79.63
2023-08-18T12:27:37.547Z,79.80
2023-08-18T12:30:05.073Z,79.55
2023-08-18T12:32:33.570Z,79.56
2023-08-18T12:35:00.728Z,79.38
2023-08-18T12:37:29.718Z,79.09
2023-08-18T12:39:59.171Z,79.13
2023-08-18T12:42:26.142Z,78.86
2023-08-18T12:44:52.970Z,79.08
2023-08-18T12:47:20.858Z,79.12
2023-08-18T12:49:48.372Z,78.88
2023-08-18T12:52:15.251Z,78.74
2023-08-18T12:54:42.338Z,78.80
2023-08-18T12:57:11.511Z,78.43
2023-08-18T12:59:38.342Z,78.20
2023-08-18T13:02:05.535Z,78.26
2023-08-18T13:04:33.225Z,78.24
2023-08-18T13:07:00.169Z,78.15
2023-08-18T13:09:28.343Z,77.87
2023-08-18T13:11:56.129Z,77.72
2023-08-18T13:14:26.765Z,77.85
2023-08-18T13:16:59.075Z,77.47
2023-08-18T13:19:27.239Z,77.57
2023-08-18T13:21:58.412Z,77.46
2023-08-18T13:24:27.025Z,77.15
2023-08-18T13:26:54.126Z,77.00
2023-08-18T13:29:22.462Z,77.13
2023-08-18T13:31:53.820Z,76.77
2023-08-18T13:34:21.001Z,77.14
2023-08-18T13:36:48.026Z,77.15
2023-08-18T13:39:16.902Z,77.05
2023-08-18T13:41:43.818Z,76.84
2023-08-18T13:44:10.913Z,76.85
2023-08-18T13:46:38.106Z,76.72
2023-08-18T13:49:06.445Z,76.66
2023-08-18T13:51:33.203Z,76.59
2023-08-18T13:54:00.008Z,76.64
2023-08-18T13:56:28.092Z,76.65
2023-08-18T13:58:54.807Z,76.55
2023-08-18T14:01:21.554Z,76.47
2023-08-18T14:03:48.375Z,76.60
2023-08-18T14:06:16.405Z,76.39
2023-08-18T14:08:43.165Z,76.64
2023-08-18T14:11:09.958Z,76.65
2023-08-18T14:13:38.825Z,76.56
2023-08-18T14:16:05.964Z,76.29
2023-08-18T14:18:32.796Z,76.48
2023-08-18T14:20:59.628Z,76.61
2023-08-18T14:23:29.832Z,76.59
2023-08-18T14:25:56.933Z,76.40
2023-08-18T14:28:23.883Z,76.47
2023-08-18T14:30:50.642Z,76.40
2023-08-18T14:33:25.731Z,76.38
2023-08-18T14:35:58.606Z,76.38
2023-08-18T14:38:28.197Z,76.29
2023-08-18T14:40:55.733Z,76.26
2023-08-18T14:43:22.565Z,76.29
2023-08-18T14:45:49.363Z,76.23
2023-08-18T14:48:16.124Z,76.25
2023-08-18T14:50:43.123Z,76.12
2023-08-18T14:55:55.326Z,76.18
2023-08-18T14:58:26.770Z,76.26
2023-08-18T15:00:53.561Z,76.13
2023-08-18T15:03:20.530Z,76.26
2023-08-18T15:05:47.308Z,76.30
2023-08-18T15:08:14.804Z,76.28
2023-08-18T15:10:41.896Z,76.28
2023-08-18T15:13:10.086Z,76.11
2023-08-18T15:15:36.987Z,76.35
2023-08-18T15:18:04.654Z,76.39
2023-08-18T15:20:39.034Z,76.36
2023-08-18T15:23:05.898Z,76.47
2023-08-18T15:25:33.017Z,76.31
2023-08-18T15:28:00.023Z,76.47
2023-08-18T15:30:31.783Z,76.74
2023-08-18T15:32:58.745Z,76.81
2023-08-18T15:35:25.614Z,76.92
2023-08-18T15:37:52.629Z,76.78
2023-08-18T15:40:20.754Z,76.70
2023-08-18T15:42:47.632Z,76.78
2023-08-18T15:45:19.604Z,76.81
2023-08-18T15:47:49.918Z,76.92
2023-08-18T15:50:17.054Z,76.86
2023-08-18T15:52:43.803Z,76.75
2023-08-18T15:55:10.666Z,76.78
2023-08-18T15:57:37.511Z,76.99
2023-08-18T16:00:05.440Z,77.04
2023-08-18T16:02:33.288Z,77.00
2023-08-18T16:05:02.166Z,77.07
2023-08-18T16:07:29.180Z,77.07
2023-08-18T16:09:56.049Z,77.06
2023-08-18T16:12:23.106Z,77.09
2023-08-18T16:15:26.686Z,77.23
2023-08-18T16:17:36.767Z,77.14
2023-08-18T16:20:09.534Z,77.12
2023-08-18T16:22:38.927Z,77.15
2023-08-18T16:25:06.588Z,77.10
2023-08-18T16:27:33.764Z,77.15
2023-08-18T16:30:02.422Z,77.05
2023-08-18T16:32:29.142Z,77.20
2023-08-18T16:34:57.431Z,77.07
2023-08-18T16:37:25.769Z,77.08
2023-08-18T16:39:52.576Z,77.07
2023-08-18T16:42:19.228Z,77.30
2023-08-18T16:44:46.008Z,77.39
2023-08-18T16:47:12.754Z,77.40
2023-08-18T16:49:39.465Z,77.44
2023-08-18T16:52:06.760Z,77.68
2023-08-18T16:54:35.236Z,77.70
2023-08-18T16:57:02.758Z,77.80
2023-08-18T16:59:34.161Z,77.91
2023-08-18T17:02:01.438Z,78.09
2023-08-18T17:04:29.151Z,78.07
2023-08-18T17:06:56.574Z,78.15
2023-08-18T17:09:23.991Z,78.18
2023-08-18T17:11:53.132Z,78.25
2023-08-18T17:14:20.979Z,78.50
2023-08-18T17:16:47.823Z,78.62
2023-08-18T17:19:14.712Z,78.67
2023-08-18T17:21:41.769Z,78.61
2023-08-18T17:24:09.575Z,78.86
2023-08-18T17:26:36.687Z,78.92
2023-08-18T17:29:05.345Z,79.14
2023-08-18T17:31:34.297Z,79.18
2023-08-18T17:34:01.400Z,79.40
2023-08-18T17:36:28.156Z,79.47
2023-08-18T17:38:55.050Z,79.68
2023-08-18T17:41:21.974Z,79.82
2023-08-18T17:43:48.733Z,80.03
2023-08-18T17:46:16.890Z,80.28
2023-08-18T17:48:43.744Z,80.42
2023-08-18T17:51:10.457Z,80.54
2023-08-18T17:53:37.190Z,80.52
2023-08-18T17:56:04.652Z,80.41
2023-08-18T17:58:31.760Z,80.46
2023-08-18T18:00:59.431Z,80.49
2023-08-18T18:03:28.156Z,80.62
2023-08-18T18:05:55.036Z,80.56
2023-08-18T18:08:21.996Z,80.79
2023-08-18T18:10:49.607Z,80.85
2023-08-18T18:13:17.235Z,80.86
2023-08-18T18:15:44.478Z,80.94
2023-08-18T18:18:11.695Z,81.20
2023-08-18T18:20:40.056Z,81.36
2023-08-18T18:23:06.768Z,81.40
2023-08-18T18:25:33.494Z,81.37
2023-08-18T18:28:00.320Z,81.54
2023-08-18T18:30:27.111Z,81.47
2023-08-18T18:32:54.210Z,81.75
2023-08-18T18:35:22.232Z,81.59
2023-08-18T18:37:50.459Z,82.07
2023-08-18T18:40:19.327Z,81.93
2023-08-18T18:42:47.517Z,82.19
2023-08-18T18:45:14.865Z,82.28
2023-08-18T18:47:41.862Z,82.34
2023-08-18T18:50:10.370Z,82.51
2023-08-18T18:52:37.143Z,82.43
2023-08-18T18:55:06.872Z,82.67
2023-08-18T18:57:34.135Z,82.72
2023-08-18T19:00:00.983Z,82.97
2023-08-18T19:02:29.126Z,82.93
2023-08-18T19:04:56.100Z,83.17
2023-08-18T19:07:24.047Z,83.23
2023-08-18T19:09:53.052Z,83.33
2023-08-18T19:12:21.454Z,83.48
2023-08-18T19:14:48.366Z,83.45
2023-08-18T19:17:15.111Z,83.53
2023-08-18T19:19:41.850Z,83.63
2023-08-18T19:22:08.781Z,83.79
2023-08-18T19:24:41.298Z,83.66
2023-08-18T19:27:08.793Z,83.93
2023-08-18T19:29:36.921Z,84.06
2023-08-18T19:32:10.014Z,84.06
2023-08-18T19:34:37.026Z,84.26
2023-08-18T19:37:03.989Z,84.28
2023-08-18T19:39:31.043Z,84.38
2023-08-18T19:41:57.895Z,84.56
2023-08-18T19:44:24.667Z,84.84
2023-08-18T19:46:52.808Z,84.68
2023-08-18T19:49:19.556Z,84.79
2023-08-18T19:51:46.386Z,84.90
2023-08-18T19:54:13.207Z,85.08
2023-08-18T19:56:39.980Z,85.14
2023-08-18T19:59:08.350Z,85.13
2023-08-18T20:01:35.121Z,85.25
2023-08-18T20:04:03.725Z,85.37
2023-08-18T20:06:30.660Z,85.50
2023-08-18T20:08:59.407Z,85.39
2023-08-18T20:11:26.859Z,85.48
2023-08-18T20:13:54.773Z,85.63
2023-08-18T20:16:22.200Z,85.58
2023-08-18T20:18:50.384Z,85.73
2023-08-18T20:21:18.652Z,85.90
2023-08-18T20:23:45.409Z,86.09
2023-08-18T20:26:12.237Z,86.09
2023-08-18T20:28:39.104Z,86.18
2023-08-18T20:31:07.062Z,86.14
2023-08-18T20:33:35.073Z,86.37
2023-08-18T20:36:02.187Z,86.37
2023-08-18T20:38:30.455Z,86.37
2023-08-18T20:40:58.001Z,86.58
2023-08-18T20:43:25.981Z,86.38
2023-08-18T20:45:54.636Z,86.71
2023-08-18T20:48:24.027Z,86.68
2023-08-18T20:50:51.184Z,86.79
2023-08-18T20:53:18.201Z,86.96
2023-08-18T20:55:47.394Z,86.86
2023-08-18T20:58:14.260Z,86.80
2023-08-18T21:00:42.932Z,86.99
2023-08-18T21:03:10.124Z,87.05
2023-08-18T21:05:36.938Z,86.95
2023-08-18T21:08:04.583Z,87.03
2023-08-18T21:10:31.379Z,87.14
2023-08-18T21:12:59.495Z,87.31
2023-08-18T21:15:26.625Z,87.16
2023-08-18T21:17:53.691Z,87.41
2023-08-18T21:20:20.695Z,87.44
2023-08-18T21:22:49.185Z,87.48
2023-08-18T21:25:17.233Z,87.40
2023-08-18T21:27:44.214Z,87.43
2023-08-18T21:30:15.071Z,87.49
2023-08-18T21:32:41.950Z,87.59
2023-08-18T21:35:10.682Z,87.74
2023-08-18T21:37:37.699Z,87.59
2023-08-18T21:40:05.559Z,87.76
2023-08-18T21:42:33.173Z,87.58
2023-08-18T21:45:01.106Z,87.80
2023-08-18T21:47:29.425Z,87.81
2023-08-18T21:49:56.278Z,87.75
2023-08-18T21:52:23.344Z,88.00
2023-08-18T21:54:50.208Z,88.04
2023-08-18T21:57:17.256Z,88.13
2023-08-18T21:59:44.203Z,87.91
2023-08-18T22:02:10.999Z,88.09
2023-08-18T22:04:39.214Z,88.06
2023-08-18T22:07:06.300Z,88.22
2023-08-18T22:09:33.097Z,88.21
2023-08-18T22:11:59.828Z,88.16
2023-08-18T22:14:26.669Z,88.46
2023-08-18T22:16:53.897Z,88.46
2023-08-18T22:19:20.671Z,88.33
2023-08-18T22:21:48.828Z,88.44
2023-08-18T22:24:15.626Z,88.17
2023-08-18T22:26:43.485Z,88.58
2023-08-18T22:29:10.410Z,88.60
2023-08-18T22:31:37.255Z,88.56
2023-08-18T22:34:04.376Z,88.67
2023-08-18T22:36:31.152Z,88.64
2023-08-18T22:38:59.493Z,88.66
2023-08-18T22:41:27.704Z,88.61
2023-08-18T22:43:54.476Z,88.55
2023-08-18T22:46:21.407Z,88.62
2023-08-18T22:48:48.153Z,88.63
2023-08-18T22:51:14.950Z,88.51
2023-08-18T22:53:41.630Z,88.66
2023-08-18T22:56:09.922Z,88.74
2023-08-18T22:58:36.725Z,88.64
2023-08-18T23:01:03.659Z,88.64
2023-08-18T23:03:30.485Z,88.71
2023-08-18T23:05:57.385Z,88.60
2023-08-18T23:08:24.226Z,88.59
2023-08-18T23:10:50.961Z,88.60
2023-08-18T23:13:19.125Z,88.80
2023-08-18T23:15:45.882Z,88.63
2023-08-18T23:18:12.700Z,88.74
2023-08-18T23:20:39.692Z,88.90
2023-08-18T23:23:06.559Z,88.78
2023-08-18T23:25:33.369Z,88.79
2023-08-18T23:28:00.079Z,88.74
2023-08-18T23:30:28.201Z,88.96
2023-08-18T23:32:55.119Z,88.66
2023-08-18T23:35:22.379Z,88.82
2023-08-18T23:37:49.165Z,89.01
2023-08-18T23:40:16.157Z,88.94
2023-08-18T23:42:43.944Z,89.13
2023-08-18T23:45:31.005Z,89.02
2023-08-18T23:47:57.832Z,89.11
2023-08-18T23:50:24.640Z,89.17
2023-08-18T23:52:56.536Z,89.07
2023-08-18T23:55:23.333Z,89.34
2023-08-18T23:57:50.333Z,89.24
